sensor_id;sensor_type;location;lat;lon;timestamp;pressure;altitude;pressure_sealevel;temperature
21336;BMP180;69435;52.670;13.544;2023-10-19T00:01:16;99935.00;;;11.50
21336;BMP180;69435;52.670;13.544;2023-10-19T00:04:02;99928.00;;;11.50
21336;BMP180;69435;52.670;13.544;2023-10-19T00:06:48;99905.00;;;11.50
21336;BMP180;69435;52.670;13.544;2023-10-19T00:09:38;99914.00;;;11.50
21336;BMP180;69435;52.670;13.544;2023-10-19T00:12:25;99889.00;;;11.40
21336;BMP180;69435;52.670;13.544;2023-10-19T00:15:12;99898.00;;;11.40
21336;BMP180;69435;52.670;13.544;2023-10-19T00:17:58;99897.00;;;11.30
21336;BMP180;69435;52.670;13.544;2023-10-19T00:20:55;99885.00;;;11.40
21336;BMP180;69435;52.670;13.544;2023-10-19T00:24:00;99893.00;;;11.40
21336;BMP180;69435;52.670;13.544;2023-10-19T00:26:50;99898.00;;;11.40
21336;BMP180;69435;52.670;13.544;2023-10-19T00:29:41;99895.00;;;11.40
21336;BMP180;69435;52.670;13.544;2023-10-19T00:32:33;99893.00;;;11.50
21336;BMP180;69435;52.670;13.544;2023-10-19T00:35:24;99905.00;;;11.50
21336;BMP180;69435;52.670;13.544;2023-10-19T00:38:20;99887.00;;;11.50
21336;BMP180;69435;52.670;13.544;2023-10-19T00:41:26;99881.00;;;11.40
21336;BMP180;69435;52.670;13.544;2023-10-19T00:44:15;99883.00;;;11.40
21336;BMP180;69435;52.670;13.544;2023-10-19T00:47:08;99854.00;;;11.40
21336;BMP180;69435;52.670;13.544;2023-10-19T00:49:59;99846.00;;;11.40
21336;BMP180;69435;52.670;13.544;2023-10-19T00:52:49;99826.00;;;11.40
21336;BMP180;69435;52.670;13.544;2023-10-19T00:55:35;99810.00;;;11.40
21336;BMP180;69435;52.670;13.544;2023-10-19T00:58:22;99833.00;;;11.40
21336;BMP180;69435;52.670;13.544;2023-10-19T01:01:17;99823.00;;;11.40
21336;BMP180;69435;52.670;13.544;2023-10-19T01:04:07;99788.00;;;11.30
21336;BMP180;69435;52.670;13.544;2023-10-19T01:06:53;99821.00;;;11.30
21336;BMP180;69435;52.670;13.544;2023-10-19T01:10:02;99826.00;;;11.30
21336;BMP180;69435;52.670;13.544;2023-10-19T01:12:51;99826.00;;;11.30
21336;BMP180;69435;52.670;13.544;2023-10-19T01:15:37;99794.00;;;11.30
21336;BMP180;69435;52.670;13.544;2023-10-19T01:18:23;99803.00;;;11.30
21336;BMP180;69435;52.670;13.544;2023-10-19T01:21:18;99808.00;;;11.30
21336;BMP180;69435;52.670;13.544;2023-10-19T01:24:08;99792.00;;;11.30
21336;BMP180;69435;52.670;13.544;2023-10-19T01:26:54;99782.00;;;11.30
21336;BMP180;69435;52.670;13.544;2023-10-19T01:29:42;99797.00;;;11.30
21336;BMP180;69435;52.670;13.544;2023-10-19T01:32:29;99797.00;;;11.30
21336;BMP180;69435;52.670;13.544;2023-10-19T01:35:15;99781.00;;;11.30
21336;BMP180;69435;52.670;13.544;2023-10-19T01:38:01;99769.00;;;11.30
21336;BMP180;69435;52.670;13.544;2023-10-19T01:40:47;99783.00;;;11.30
21336;BMP180;69435;52.670;13.544;2023-10-19T01:43:34;99750.00;;;11.30
21336;BMP180;69435;52.670;13.544;2023-10-19T01:46:22;99754.00;;;11.30
21336;BMP180;69435;52.670;13.544;2023-10-19T01:49:19;99756.00;;;11.20
21336;BMP180;69435;52.670;13.544;2023-10-19T01:52:14;99749.00;;;11.20
21336;BMP180;69435;52.670;13.544;2023-10-19T01:55:00;99724.00;;;11.20
21336;BMP180;69435;52.670;13.544;2023-10-19T01:57:53;99756.00;;;11.10
21336;BMP180;69435;52.670;13.544;2023-10-19T02:00:39;99728.00;;;11.10
21336;BMP180;69435;52.670;13.544;2023-10-19T02:03:28;99722.00;;;11.10
21336;BMP180;69435;52.670;13.544;2023-10-19T02:06:15;99713.00;;;11.10
21336;BMP180;69435;52.670;13.544;2023-10-19T02:09:11;99715.00;;;11.00
21336;BMP180;69435;52.670;13.544;2023-10-19T02:12:04;99656.00;;;11.10
21336;BMP180;69435;52.670;13.544;2023-10-19T02:14:52;99679.00;;;11.00
21336;BMP180;69435;52.670;13.544;2023-10-19T02:17:38;99675.00;;;11.00
21336;BMP180;69435;52.670;13.544;2023-10-19T02:20:25;99688.00;;;11.00
21336;BMP180;69435;52.670;13.544;2023-10-19T02:23:11;99688.00;;;11.00
21336;BMP180;69435;52.670;13.544;2023-10-19T02:25:57;99714.00;;;11.00
21336;BMP180;69435;52.670;13.544;2023-10-19T02:28:43;99696.00;;;11.00
21336;BMP180;69435;52.670;13.544;2023-10-19T02:31:30;99671.00;;;11.00
21336;BMP180;69435;52.670;13.544;2023-10-19T02:34:16;99703.00;;;11.00
21336;BMP180;69435;52.670;13.544;2023-10-19T02:37:01;99688.00;;;11.00
21336;BMP180;69435;52.670;13.544;2023-10-19T02:39:48;99680.00;;;11.10
21336;BMP180;69435;52.670;13.544;2023-10-19T02:42:35;99673.00;;;11.10
21336;BMP180;69435;52.670;13.544;2023-10-19T02:45:21;99692.00;;;11.10
21336;BMP180;69435;52.670;13.544;2023-10-19T02:48:07;99670.00;;;11.10
21336;BMP180;69435;52.670;13.544;2023-10-19T02:50:57;99667.00;;;11.10
21336;BMP180;69435;52.670;13.544;2023-10-19T02:53:51;99657.00;;;11.10
21336;BMP180;69435;52.670;13.544;2023-10-19T02:56:37;99665.00;;;11.10
21336;BMP180;69435;52.670;13.544;2023-10-19T02:59:26;99632.00;;;11.10
21336;BMP180;69435;52.670;13.544;2023-10-19T03:02:14;99667.00;;;11.10
21336;BMP180;69435;52.670;13.544;2023-10-19T03:05:00;99641.00;;;11.20
21336;BMP180;69435;52.670;13.544;2023-10-19T03:07:46;99628.00;;;11.20
21336;BMP180;69435;52.670;13.544;2023-10-19T03:10:34;99584.00;;;11.20
21336;BMP180;69435;52.670;13.544;2023-10-19T03:13:27;99644.00;;;11.20
21336;BMP180;69435;52.670;13.544;2023-10-19T03:16:13;99633.00;;;11.20
21336;BMP180;69435;52.670;13.544;2023-10-19T03:19:01;99622.00;;;11.20
21336;BMP180;69435;52.670;13.544;2023-10-19T03:21:47;99627.00;;;11.30
21336;BMP180;69435;52.670;13.544;2023-10-19T03:24:35;99616.00;;;11.30
21336;BMP180;69435;52.670;13.544;2023-10-19T03:27:21;99624.00;;;11.30
21336;BMP180;69435;52.670;13.544;2023-10-19T03:30:08;99598.00;;;11.20
21336;BMP180;69435;52.670;13.544;2023-10-19T03:33:00;99607.00;;;11.30
21336;BMP180;69435;52.670;13.544;2023-10-19T03:35:46;99610.00;;;11.30
21336;BMP180;69435;52.670;13.544;2023-10-19T03:38:32;99602.00;;;11.30
21336;BMP180;69435;52.670;13.544;2023-10-19T03:41:22;99601.00;;;11.30
21336;BMP180;69435;52.670;13.544;2023-10-19T03:44:12;99603.00;;;11.30
21336;BMP180;69435;52.670;13.544;2023-10-19T03:47:09;99581.00;;;11.30
21336;BMP180;69435;52.670;13.544;2023-10-19T03:50:05;99555.00;;;11.20
21336;BMP180;69435;52.670;13.544;2023-10-19T03:52:52;99595.00;;;11.30
21336;BMP180;69435;52.670;13.544;2023-10-19T03:55:39;99486.00;;;11.30
21336;BMP180;69435;52.670;13.544;2023-10-19T03:58:29;99589.00;;;11.30
21336;BMP180;69435;52.670;13.544;2023-10-19T04:01:17;99588.00;;;11.20
21336;BMP180;69435;52.670;13.544;2023-10-19T04:04:05;99573.00;;;11.20
21336;BMP180;69435;52.670;13.544;2023-10-19T04:06:51;99566.00;;;11.30
21336;BMP180;69435;52.670;13.544;2023-10-19T04:09:43;99552.00;;;11.30
21336;BMP180;69435;52.670;13.544;2023-10-19T04:12:48;99560.00;;;11.20
21336;BMP180;69435;52.670;13.544;2023-10-19T04:15:34;99578.00;;;11.20
21336;BMP180;69435;52.670;13.544;2023-10-19T04:18:21;99518.00;;;11.20
21336;BMP180;69435;52.670;13.544;2023-10-19T04:21:11;99566.00;;;11.20
21336;BMP180;69435;52.670;13.544;2023-10-19T04:23:57;99514.00;;;11.20
21336;BMP180;69435;52.670;13.544;2023-10-19T04:26:44;99537.00;;;11.20
21336;BMP180;69435;52.670;13.544;2023-10-19T04:29:31;99546.00;;;11.20
21336;BMP180;69435;52.670;13.544;2023-10-19T04:32:17;99538.00;;;11.20
21336;BMP180;69435;52.670;13.544;2023-10-19T04:35:14;99553.00;;;11.20
21336;BMP180;69435;52.670;13.544;2023-10-19T04:38:07;99552.00;;;10.90
21336;BMP180;69435;52.670;13.544;2023-10-19T04:40:53;99486.00;;;11.20
21336;BMP180;69435;52.670;13.544;2023-10-19T04:43:39;99512.00;;;11.10
21336;BMP180;69435;52.670;13.544;2023-10-19T04:46:25;99513.00;;;11.20
21336;BMP180;69435;52.670;13.544;2023-10-19T04:49:14;99513.00;;;11.20
21336;BMP180;69435;52.670;13.544;2023-10-19T04:52:02;99498.00;;;11.20
21336;BMP180;69435;52.670;13.544;2023-10-19T04:54:49;99512.00;;;11.20
21336;BMP180;69435;52.670;13.544;2023-10-19T04:57:35;99513.00;;;11.20
21336;BMP180;69435;52.670;13.544;2023-10-19T05:00:24;99522.00;;;11.20
21336;BMP180;69435;52.670;13.544;2023-10-19T05:03:11;99476.00;;;11.30
21336;BMP180;69435;52.670;13.544;2023-10-19T05:06:04;99492.00;;;11.20
21336;BMP180;69435;52.670;13.544;2023-10-19T05:08:50;99520.00;;;11.20
21336;BMP180;69435;52.670;13.544;2023-10-19T05:11:37;99490.00;;;11.20
21336;BMP180;69435;52.670;13.544;2023-10-19T05:14:25;99502.00;;;11.20
21336;BMP180;69435;52.670;13.544;2023-10-19T05:17:11;99494.00;;;11.20
21336;BMP180;69435;52.670;13.544;2023-10-19T05:19:57;99501.00;;;11.20
21336;BMP180;69435;52.670;13.544;2023-10-19T05:22:43;99487.00;;;11.20
21336;BMP180;69435;52.670;13.544;2023-10-19T05:25:29;99490.00;;;11.20
21336;BMP180;69435;52.670;13.544;2023-10-19T05:28:16;99493.00;;;11.10
21336;BMP180;69435;52.670;13.544;2023-10-19T05:31:02;99509.00;;;11.20
21336;BMP180;69435;52.670;13.544;2023-10-19T05:33:50;99521.00;;;11.20
21336;BMP180;69435;52.670;13.544;2023-10-19T05:36:36;99496.00;;;11.20
21336;BMP180;69435;52.670;13.544;2023-10-19T05:39:22;99507.00;;;11.20
21336;BMP180;69435;52.670;13.544;2023-10-19T05:42:13;99506.00;;;11.20
21336;BMP180;69435;52.670;13.544;2023-10-19T05:44:59;99502.00;;;11.20
21336;BMP180;69435;52.670;13.544;2023-10-19T05:47:48;99503.00;;;11.20
21336;BMP180;69435;52.670;13.544;2023-10-19T05:50:35;99488.00;;;11.20
21336;BMP180;69435;52.670;13.544;2023-10-19T05:53:21;99498.00;;;11.20
21336;BMP180;69435;52.670;13.544;2023-10-19T05:56:08;99504.00;;;11.20
21336;BMP180;69435;52.670;13.544;2023-10-19T05:58:54;99519.00;;;11.30
21336;BMP180;69435;52.670;13.544;2023-10-19T06:01:40;99509.00;;;11.30
21336;BMP180;69435;52.670;13.544;2023-10-19T06:04:27;99491.00;;;11.30
21336;BMP180;69435;52.670;13.544;2023-10-19T06:07:12;99487.00;;;11.30
21336;BMP180;69435;52.670;13.544;2023-10-19T06:09:58;99491.00;;;11.20
21336;BMP180;69435;52.670;13.544;2023-10-19T06:12:51;99485.00;;;11.20
21336;BMP180;69435;52.670;13.544;2023-10-19T06:15:37;99468.00;;;11.10
21336;BMP180;69435;52.670;13.544;2023-10-19T06:18:24;99483.00;;;11.10
21336;BMP180;69435;52.670;13.544;2023-10-19T06:21:10;99467.00;;;11.00
21336;BMP180;69435;52.670;13.544;2023-10-19T06:23:58;99455.00;;;10.90
21336;BMP180;69435;52.670;13.544;2023-10-19T06:26:44;99452.00;;;10.80
21336;BMP180;69435;52.670;13.544;2023-10-19T06:29:30;99426.00;;;10.70
21336;BMP180;69435;52.670;13.544;2023-10-19T06:32:16;99435.00;;;10.70
21336;BMP180;69435;52.670;13.544;2023-10-19T06:35:03;99446.00;;;10.60
21336;BMP180;69435;52.670;13.544;2023-10-19T06:37:49;99444.00;;;10.60
21336;BMP180;69435;52.670;13.544;2023-10-19T06:40:35;99476.00;;;10.60
21336;BMP180;69435;52.670;13.544;2023-10-19T06:43:24;99452.00;;;10.60
21336;BMP180;69435;52.670;13.544;2023-10-19T06:46:14;99405.00;;;10.50
21336;BMP180;69435;52.670;13.544;2023-10-19T06:49:00;99441.00;;;10.50
21336;BMP180;69435;52.670;13.544;2023-10-19T06:51:46;99447.00;;;10.50
21336;BMP180;69435;52.670;13.544;2023-10-19T06:54:32;99454.00;;;10.50
21336;BMP180;69435;52.670;13.544;2023-10-19T06:57:19;99439.00;;;10.50
21336;BMP180;69435;52.670;13.544;2023-10-19T07:00:05;99453.00;;;10.50
21336;BMP180;69435;52.670;13.544;2023-10-19T07:03:00;99470.00;;;10.50
21336;BMP180;69435;52.670;13.544;2023-10-19T07:05:46;99462.00;;;10.60
21336;BMP180;69435;52.670;13.544;2023-10-19T07:08:32;99450.00;;;10.60
21336;BMP180;69435;52.670;13.544;2023-10-19T07:11:18;99429.00;;;10.60
21336;BMP180;69435;52.670;13.544;2023-10-19T07:14:04;99427.00;;;10.60
21336;BMP180;69435;52.670;13.544;2023-10-19T07:16:53;99414.00;;;10.60
21336;BMP180;69435;52.670;13.544;2023-10-19T07:19:42;99416.00;;;10.70
21336;BMP180;69435;52.670;13.544;2023-10-19T07:22:29;99410.00;;;10.70
21336;BMP180;69435;52.670;13.544;2023-10-19T07:25:15;99401.00;;;10.70
21336;BMP180;69435;52.670;13.544;2023-10-19T07:28:01;99403.00;;;10.80
21336;BMP180;69435;52.670;13.544;2023-10-19T07:30:49;99373.00;;;10.80
21336;BMP180;69435;52.670;13.544;2023-10-19T07:33:37;99402.00;;;10.70
21336;BMP180;69435;52.670;13.544;2023-10-19T07:36:27;99414.00;;;10.80
21336;BMP180;69435;52.670;13.544;2023-10-19T07:39:14;99388.00;;;10.90
21336;BMP180;69435;52.670;13.544;2023-10-19T07:42:04;99392.00;;;10.90
21336;BMP180;69435;52.670;13.544;2023-10-19T07:44:52;99394.00;;;10.90
21336;BMP180;69435;52.670;13.544;2023-10-19T07:47:39;99401.00;;;11.00
21336;BMP180;69435;52.670;13.544;2023-10-19T07:50:26;99404.00;;;11.00
21336;BMP180;69435;52.670;13.544;2023-10-19T07:53:12;99380.00;;;11.00
21336;BMP180;69435;52.670;13.544;2023-10-19T07:55:58;99397.00;;;11.10
21336;BMP180;69435;52.670;13.544;2023-10-19T07:58:44;99389.00;;;11.10
21336;BMP180;69435;52.670;13.544;2023-10-19T08:01:30;99398.00;;;11.20
21336;BMP180;69435;52.670;13.544;2023-10-19T08:04:16;99404.00;;;11.20
21336;BMP180;69435;52.670;13.544;2023-10-19T08:07:02;99392.00;;;11.20
21336;BMP180;69435;52.670;13.544;2023-10-19T08:09:48;99415.00;;;11.30
21336;BMP180;69435;52.670;13.544;2023-10-19T08:12:34;99395.00;;;11.40
21336;BMP180;69435;52.670;13.544;2023-10-19T08:15:20;99423.00;;;11.50
21336;BMP180;69435;52.670;13.544;2023-10-19T08:18:06;99386.00;;;11.60
21336;BMP180;69435;52.670;13.544;2023-10-19T08:20:53;99407.00;;;11.70
21336;BMP180;69435;52.670;13.544;2023-10-19T08:23:39;99385.00;;;11.70
21336;BMP180;69435;52.670;13.544;2023-10-19T08:26:26;99386.00;;;11.70
21336;BMP180;69435;52.670;13.544;2023-10-19T08:29:12;99372.00;;;11.70
21336;BMP180;69435;52.670;13.544;2023-10-19T08:31:59;99377.00;;;11.70
21336;BMP180;69435;52.670;13.544;2023-10-19T08:34:45;99374.00;;;11.70
21336;BMP180;69435;52.670;13.544;2023-10-19T08:37:31;99339.00;;;11.70
21336;BMP180;69435;52.670;13.544;2023-10-19T08:40:17;99351.00;;;11.80
21336;BMP180;69435;52.670;13.544;2023-10-19T08:43:03;99377.00;;;11.90
21336;BMP180;69435;52.670;13.544;2023-10-19T08:45:50;99367.00;;;11.90
21336;BMP180;69435;52.670;13.544;2023-10-19T08:48:37;99368.00;;;11.90
21336;BMP180;69435;52.670;13.544;2023-10-19T08:51:23;99359.00;;;12.00
21336;BMP180;69435;52.670;13.544;2023-10-19T08:54:14;99371.00;;;12.00
21336;BMP180;69435;52.670;13.544;2023-10-19T08:57:01;99362.00;;;12.00
21336;BMP180;69435;52.670;13.544;2023-10-19T08:59:48;99370.00;;;12.00
21336;BMP180;69435;52.670;13.544;2023-10-19T09:02:34;99350.00;;;12.00
21336;BMP180;69435;52.670;13.544;2023-10-19T09:05:20;99342.00;;;12.00
21336;BMP180;69435;52.670;13.544;2023-10-19T09:08:08;99353.00;;;11.90
21336;BMP180;69435;52.670;13.544;2023-10-19T09:10:55;99358.00;;;11.90
21336;BMP180;69435;52.670;13.544;2023-10-19T09:13:51;99357.00;;;12.00
21336;BMP180;69435;52.670;13.544;2023-10-19T09:16:37;99352.00;;;12.00
21336;BMP180;69435;52.670;13.544;2023-10-19T09:19:45;99353.00;;;12.10
21336;BMP180;69435;52.670;13.544;2023-10-19T09:22:36;99353.00;;;12.10
21336;BMP180;69435;52.670;13.544;2023-10-19T09:25:23;99331.00;;;12.10
21336;BMP180;69435;52.670;13.544;2023-10-19T09:28:09;99337.00;;;12.20
21336;BMP180;69435;52.670;13.544;2023-10-19T09:30:57;99308.00;;;12.20
21336;BMP180;69435;52.670;13.544;2023-10-19T09:33:45;99334.00;;;12.30
21336;BMP180;69435;52.670;13.544;2023-10-19T09:36:31;99353.00;;;12.40
21336;BMP180;69435;52.670;13.544;2023-10-19T09:39:18;99320.00;;;12.40
21336;BMP180;69435;52.670;13.544;2023-10-19T09:42:10;99334.00;;;12.50
21336;BMP180;69435;52.670;13.544;2023-10-19T09:45:02;99334.00;;;12.50
21336;BMP180;69435;52.670;13.544;2023-10-19T09:47:52;99329.00;;;12.50
21336;BMP180;69435;52.670;13.544;2023-10-19T09:50:40;99330.00;;;12.60
21336;BMP180;69435;52.670;13.544;2023-10-19T09:53:27;99314.00;;;12.60
21336;BMP180;69435;52.670;13.544;2023-10-19T09:56:37;99326.00;;;12.70
21336;BMP180;69435;52.670;13.544;2023-10-19T09:59:37;99329.00;;;12.70
21336;BMP180;69435;52.670;13.544;2023-10-19T10:02:24;99340.00;;;12.70
21336;BMP180;69435;52.670;13.544;2023-10-19T10:11:18;99330.00;;;12.80
21336;BMP180;69435;52.670;13.544;2023-10-19T10:14:22;99306.00;;;12.80
21336;BMP180;69435;52.670;13.544;2023-10-19T10:17:17;99342.00;;;12.80
21336;BMP180;69435;52.670;13.544;2023-10-19T10:23:25;99311.00;;;12.90
21336;BMP180;69435;52.670;13.544;2023-10-19T10:26:13;99338.00;;;12.90
21336;BMP180;69435;52.670;13.544;2023-10-19T10:29:23;99316.00;;;13.00
21336;BMP180;69435;52.670;13.544;2023-10-19T10:32:50;99332.00;;;13.10
21336;BMP180;69435;52.670;13.544;2023-10-19T10:38:24;99278.00;;;13.00
21336;BMP180;69435;52.670;13.544;2023-10-19T10:41:23;99274.00;;;13.00
21336;BMP180;69435;52.670;13.544;2023-10-19T10:44:14;99274.00;;;12.90
21336;BMP180;69435;52.670;13.544;2023-10-19T10:47:00;99256.00;;;13.00
21336;BMP180;69435;52.670;13.544;2023-10-19T10:50:00;99271.00;;;13.10
21336;BMP180;69435;52.670;13.544;2023-10-19T10:52:46;99250.00;;;13.10
21336;BMP180;69435;52.670;13.544;2023-10-19T10:55:32;99281.00;;;13.20
21336;BMP180;69435;52.670;13.544;2023-10-19T10:58:18;99253.00;;;13.10
21336;BMP180;69435;52.670;13.544;2023-10-19T11:01:05;99207.00;;;13.10
21336;BMP180;69435;52.670;13.544;2023-10-19T11:04:08;99284.00;;;13.20
21336;BMP180;69435;52.670;13.544;2023-10-19T11:06:54;99266.00;;;13.10
21336;BMP180;69435;52.670;13.544;2023-10-19T11:09:45;99294.00;;;13.10
21336;BMP180;69435;52.670;13.544;2023-10-19T11:12:31;99292.00;;;13.00
21336;BMP180;69435;52.670;13.544;2023-10-19T11:15:21;99278.00;;;13.00
21336;BMP180;69435;52.670;13.544;2023-10-19T11:18:07;99263.00;;;13.00
21336;BMP180;69435;52.670;13.544;2023-10-19T11:20:58;99271.00;;;13.00
21336;BMP180;69435;52.670;13.544;2023-10-19T11:23:50;99263.00;;;13.00
21336;BMP180;69435;52.670;13.544;2023-10-19T11:26:40;99263.00;;;13.00
21336;BMP180;69435;52.670;13.544;2023-10-19T11:29:26;99268.00;;;12.90
21336;BMP180;69435;52.670;13.544;2023-10-19T11:32:12;99254.00;;;12.90
21336;BMP180;69435;52.670;13.544;2023-10-19T11:34:58;99273.00;;;12.80
21336;BMP180;69435;52.670;13.544;2023-10-19T11:40:15;99241.00;;;12.80
21336;BMP180;69435;52.670;13.544;2023-10-19T11:43:01;99260.00;;;12.80
21336;BMP180;69435;52.670;13.544;2023-10-19T11:45:47;99246.00;;;12.80
21336;BMP180;69435;52.670;13.544;2023-10-19T11:48:36;99238.00;;;12.80
21336;BMP180;69435;52.670;13.544;2023-10-19T11:51:23;99215.00;;;12.80
21336;BMP180;69435;52.670;13.544;2023-10-19T11:54:09;99214.00;;;12.70
21336;BMP180;69435;52.670;13.544;2023-10-19T11:56:55;99226.00;;;12.70
21336;BMP180;69435;52.670;13.544;2023-10-19T11:59:42;99236.00;;;12.60
21336;BMP180;69435;52.670;13.544;2023-10-19T12:02:28;99235.00;;;12.60
21336;BMP180;69435;52.670;13.544;2023-10-19T12:05:14;99238.00;;;12.60
21336;BMP180;69435;52.670;13.544;2023-10-19T12:08:00;99224.00;;;12.60
21336;BMP180;69435;52.670;13.544;2023-10-19T12:10:46;99223.00;;;12.50
21336;BMP180;69435;52.670;13.544;2023-10-19T12:13:32;99219.00;;;12.50
21336;BMP180;69435;52.670;13.544;2023-10-19T12:16:18;99219.00;;;12.50
21336;BMP180;69435;52.670;13.544;2023-10-19T12:19:06;99224.00;;;12.60
21336;BMP180;69435;52.670;13.544;2023-10-19T12:21:54;99203.00;;;12.60
21336;BMP180;69435;52.670;13.544;2023-10-19T12:24:39;99224.00;;;12.60
21336;BMP180;69435;52.670;13.544;2023-10-19T12:27:25;99214.00;;;12.60
21336;BMP180;69435;52.670;13.544;2023-10-19T12:30:12;99223.00;;;12.60
21336;BMP180;69435;52.670;13.544;2023-10-19T12:33:05;99210.00;;;12.50
21336;BMP180;69435;52.670;13.544;2023-10-19T12:36:01;99227.00;;;12.50
21336;BMP180;69435;52.670;13.544;2023-10-19T12:38:47;99207.00;;;12.60
21336;BMP180;69435;52.670;13.544;2023-10-19T12:41:33;99218.00;;;12.60
21336;BMP180;69435;52.670;13.544;2023-10-19T12:44:19;99225.00;;;12.50
21336;BMP180;69435;52.670;13.544;2023-10-19T12:47:07;99199.00;;;12.50
21336;BMP180;69435;52.670;13.544;2023-10-19T12:49:56;99195.00;;;12.50
21336;BMP180;69435;52.670;13.544;2023-10-19T12:52:42;99190.00;;;12.50
21336;BMP180;69435;52.670;13.544;2023-10-19T12:55:29;99202.00;;;12.50
21336;BMP180;69435;52.670;13.544;2023-10-19T12:58:16;99204.00;;;12.50
21336;BMP180;69435;52.670;13.544;2023-10-19T13:01:05;99210.00;;;12.50
21336;BMP180;69435;52.670;13.544;2023-10-19T13:03:51;99216.00;;;12.50
21336;BMP180;69435;52.670;13.544;2023-10-19T13:06:38;99215.00;;;12.50
21336;BMP180;69435;52.670;13.544;2023-10-19T13:09:25;99218.00;;;12.50
21336;BMP180;69435;52.670;13.544;2023-10-19T13:12:16;99201.00;;;12.50
21336;BMP180;69435;52.670;13.544;2023-10-19T13:15:04;99228.00;;;12.50
21336;BMP180;69435;52.670;13.544;2023-10-19T13:17:57;99189.00;;;12.40
21336;BMP180;69435;52.670;13.544;2023-10-19T13:20:48;99213.00;;;12.40
21336;BMP180;69435;52.670;13.544;2023-10-19T13:23:34;99175.00;;;12.40
21336;BMP180;69435;52.670;13.544;2023-10-19T13:26:21;99198.00;;;12.40
21336;BMP180;69435;52.670;13.544;2023-10-19T13:29:09;99184.00;;;12.30
21336;BMP180;69435;52.670;13.544;2023-10-19T13:31:56;99185.00;;;12.30
21336;BMP180;69435;52.670;13.544;2023-10-19T13:34:42;99186.00;;;12.30
21336;BMP180;69435;52.670;13.544;2023-10-19T13:37:28;99179.00;;;12.20
21336;BMP180;69435;52.670;13.544;2023-10-19T13:40:14;99189.00;;;12.20
21336;BMP180;69435;52.670;13.544;2023-10-19T13:43:01;99199.00;;;12.20
21336;BMP180;69435;52.670;13.544;2023-10-19T13:45:48;99206.00;;;12.20
21336;BMP180;69435;52.670;13.544;2023-10-19T13:48:34;99195.00;;;12.20
21336;BMP180;69435;52.670;13.544;2023-10-19T13:51:21;99179.00;;;12.20
21336;BMP180;69435;52.670;13.544;2023-10-19T13:54:08;99180.00;;;12.20
21336;BMP180;69435;52.670;13.544;2023-10-19T13:56:54;99174.00;;;12.20
21336;BMP180;69435;52.670;13.544;2023-10-19T13:59:40;99173.00;;;12.20
21336;BMP180;69435;52.670;13.544;2023-10-19T14:02:26;99166.00;;;12.20
21336;BMP180;69435;52.670;13.544;2023-10-19T14:05:13;99181.00;;;12.20
21336;BMP180;69435;52.670;13.544;2023-10-19T14:08:00;99181.00;;;12.20
21336;BMP180;69435;52.670;13.544;2023-10-19T14:10:46;99166.00;;;12.20
21336;BMP180;69435;52.670;13.544;2023-10-19T14:13:33;99173.00;;;12.20
21336;BMP180;69435;52.670;13.544;2023-10-19T14:16:19;99124.00;;;12.20
21336;BMP180;69435;52.670;13.544;2023-10-19T14:19:05;99160.00;;;12.20
21336;BMP180;69435;52.670;13.544;2023-10-19T14:21:51;99193.00;;;12.20
21336;BMP180;69435;52.670;13.544;2023-10-19T14:24:37;99189.00;;;12.20
21336;BMP180;69435;52.670;13.544;2023-10-19T14:27:23;99149.00;;;12.20
21336;BMP180;69435;52.670;13.544;2023-10-19T14:30:15;99183.00;;;12.20
21336;BMP180;69435;52.670;13.544;2023-10-19T14:33:02;99186.00;;;12.20
21336;BMP180;69435;52.670;13.544;2023-10-19T14:35:48;99176.00;;;12.20
21336;BMP180;69435;52.670;13.544;2023-10-19T14:38:34;99166.00;;;12.20
21336;BMP180;69435;52.670;13.544;2023-10-19T14:41:21;99161.00;;;12.10
21336;BMP180;69435;52.670;13.544;2023-10-19T14:44:08;99170.00;;;12.10
21336;BMP180;69435;52.670;13.544;2023-10-19T14:46:55;99175.00;;;12.10
21336;BMP180;69435;52.670;13.544;2023-10-19T14:49:41;99173.00;;;12.10
21336;BMP180;69435;52.670;13.544;2023-10-19T14:52:27;99179.00;;;12.10
21336;BMP180;69435;52.670;13.544;2023-10-19T14:55:15;99140.00;;;12.10
21336;BMP180;69435;52.670;13.544;2023-10-19T14:58:01;99160.00;;;12.00
21336;BMP180;69435;52.670;13.544;2023-10-19T15:00:48;99155.00;;;12.10
21336;BMP180;69435;52.670;13.544;2023-10-19T15:03:43;99172.00;;;12.10
21336;BMP180;69435;52.670;13.544;2023-10-19T15:06:29;99166.00;;;12.10
21336;BMP180;69435;52.670;13.544;2023-10-19T15:09:17;99172.00;;;12.00
21336;BMP180;69435;52.670;13.544;2023-10-19T15:12:06;99161.00;;;12.10
21336;BMP180;69435;52.670;13.544;2023-10-19T15:14:52;99164.00;;;12.10
21336;BMP180;69435;52.670;13.544;2023-10-19T15:17:40;99164.00;;;12.00
21336;BMP180;69435;52.670;13.544;2023-10-19T15:20:28;99164.00;;;12.00
21336;BMP180;69435;52.670;13.544;2023-10-19T15:23:15;99170.00;;;12.00
21336;BMP180;69435;52.670;13.544;2023-10-19T15:26:01;99160.00;;;11.90
21336;BMP180;69435;52.670;13.544;2023-10-19T15:28:47;99144.00;;;11.90
21336;BMP180;69435;52.670;13.544;2023-10-19T15:31:34;99159.00;;;11.90
21336;BMP180;69435;52.670;13.544;2023-10-19T15:34:20;99145.00;;;11.90
21336;BMP180;69435;52.670;13.544;2023-10-19T15:37:06;99147.00;;;11.90
21336;BMP180;69435;52.670;13.544;2023-10-19T15:39:52;99171.00;;;11.90
21336;BMP180;69435;52.670;13.544;2023-10-19T15:42:40;99142.00;;;11.80
21336;BMP180;69435;52.670;13.544;2023-10-19T15:45:29;99168.00;;;11.80
21336;BMP180;69435;52.670;13.544;2023-10-19T15:48:18;99140.00;;;11.80
21336;BMP180;69435;52.670;13.544;2023-10-19T15:51:05;99154.00;;;11.90
21336;BMP180;69435;52.670;13.544;2023-10-19T15:53:51;99153.00;;;11.90
21336;BMP180;69435;52.670;13.544;2023-10-19T15:56:38;99149.00;;;11.90
21336;BMP180;69435;52.670;13.544;2023-10-19T15:59:24;99131.00;;;11.80
21336;BMP180;69435;52.670;13.544;2023-10-19T16:02:12;99147.00;;;11.90
21336;BMP180;69435;52.670;13.544;2023-10-19T16:04:59;99148.00;;;11.90
21336;BMP180;69435;52.670;13.544;2023-10-19T16:07:46;99129.00;;;11.90
21336;BMP180;69435;52.670;13.544;2023-10-19T16:10:32;99140.00;;;11.90